Terminal Aerodrome Forecast
Issued by NWS Sioux Falls, SD

Home | Current Version | Previous Version | Graphics & Text | Print | Product List | Glossary On
Versions: 1 2 3 4 5 6 7 8 9 10 11 12 13
000
FTUS43 KFSD 051205 RRA
TAFSUX
TAF
KSUX 051205Z 0512/0612 15008KT P6SM BKN100 WS020/23040KT
     FM051500 18013G21KT P6SM BKN200
     FM051900 21014G24KT P6SM BKN200
     FM052300 27013G22KT P6SM BKN070
     FM060100 30013G24KT P6SM SCT035=

USA.gov is the U.S. government's official web portal to all federal, state and local government web resources and services.